createdAt,value
2023-04-24T00:01:47.906Z,14.20
2023-04-24T00:04:19.051Z,14.10
2023-04-24T00:06:50.781Z,14.20
2023-04-24T00:09:19.907Z,14.20
2023-04-24T00:11:48.988Z,14.20
2023-04-24T00:14:18.405Z,14.10
2023-04-24T00:16:47.537Z,13.90
2023-04-24T00:19:18.185Z,13.90
2023-04-24T00:21:47.402Z,13.90
2023-04-24T00:24:16.625Z,13.80
2023-04-24T00:26:45.675Z,13.80
2023-04-24T00:29:15.083Z,13.70
2023-04-24T00:31:44.195Z,13.80
2023-04-24T00:34:13.970Z,13.60
2023-04-24T00:36:44.689Z,13.60
2023-04-24T00:39:13.785Z,13.60
2023-04-24T00:41:42.945Z,13.60
2023-04-24T00:44:12.106Z,13.60
2023-04-24T00:46:41.690Z,13.60
2023-04-24T00:49:11.113Z,13.50
2023-04-24T00:51:41.935Z,13.50
2023-04-24T00:54:12.546Z,13.50
2023-04-24T00:56:42.623Z,13.50
2023-04-24T00:59:13.819Z,13.50
2023-04-24T01:01:44.131Z,13.50
2023-04-24T01:04:14.780Z,13.50
2023-04-24T01:06:46.240Z,13.60
2023-04-24T01:09:17.821Z,13.50
2023-04-24T01:11:47.164Z,13.50
2023-04-24T01:14:16.572Z,13.60
2023-04-24T01:16:45.990Z,13.60
2023-04-24T01:19:16.911Z,13.60
2023-04-24T01:21:46.987Z,13.60
2023-04-24T01:24:17.826Z,13.50
2023-04-24T01:26:47.885Z,13.50
2023-04-24T01:29:17.136Z,13.50
2023-04-24T01:31:46.526Z,13.50
2023-04-24T01:34:15.946Z,13.50
2023-04-24T01:36:47.662Z,13.50
2023-04-24T01:39:18.363Z,13.50
2023-04-24T01:41:47.546Z,13.60
2023-04-24T01:44:17.321Z,13.50
2023-04-24T01:46:46.644Z,13.50
2023-04-24T01:49:15.893Z,13.30
2023-04-24T01:51:45.051Z,13.30
2023-04-24T01:54:14.380Z,13.20
2023-04-24T01:56:46.328Z,13.00
2023-04-24T01:59:16.112Z,13.00
2023-04-24T02:01:45.331Z,13.10
2023-04-24T02:04:15.880Z,13.00
2023-04-24T02:06:45.165Z,12.90
2023-04-24T02:09:14.352Z,13.00
2023-04-24T02:11:44.943Z,12.90
2023-04-24T02:14:14.115Z,12.80
2023-04-24T02:16:43.672Z,12.80
2023-04-24T02:19:13.097Z,12.70
2023-04-24T02:21:42.262Z,12.60
2023-04-24T02:24:11.575Z,12.50
2023-04-24T02:26:40.853Z,12.50
2023-04-24T02:29:11.611Z,12.40
2023-04-24T02:31:40.837Z,12.30
2023-04-24T02:34:10.698Z,12.30
2023-04-24T02:36:40.078Z,12.30
2023-04-24T02:39:10.965Z,12.20
2023-04-24T02:41:41.552Z,12.10
2023-04-24T02:44:13.169Z,12.10
2023-04-24T02:46:43.270Z,12.20
2023-04-24T02:49:13.209Z,12.30
2023-04-24T02:51:43.139Z,12.30
2023-04-24T02:54:12.419Z,12.20
2023-04-24T02:56:41.847Z,12.30
2023-04-24T02:59:13.225Z,12.30
2023-04-24T03:01:42.568Z,12.30
2023-04-24T03:04:13.033Z,12.20
2023-04-24T03:06:42.332Z,12.20
2023-04-24T03:09:11.622Z,12.20
2023-04-24T03:11:40.875Z,12.20
2023-04-24T03:14:12.633Z,12.20
2023-04-24T03:16:41.858Z,12.20
2023-04-24T03:19:11.484Z,12.10
2023-04-24T03:21:50.043Z,12.10
2023-04-24T03:24:19.636Z,12.20
2023-04-24T03:26:48.896Z,12.20
2023-04-24T03:29:55.162Z,12.20
2023-04-24T03:32:27.201Z,12.10
2023-04-24T03:34:56.637Z,12.10
2023-04-24T03:37:26.918Z,12.10
2023-04-24T03:40:09.429Z,12.10
2023-04-24T03:42:39.999Z,12.20
2023-04-24T03:45:12.317Z,12.10
2023-04-24T03:47:48.802Z,12.00
2023-04-24T03:50:18.512Z,12.10
2023-04-24T03:52:47.858Z,12.30
2023-04-24T03:55:31.283Z,12.30
2023-04-24T03:58:02.048Z,12.30
2023-04-24T04:00:34.551Z,12.40
2023-04-24T04:03:24.094Z,12.40
2023-04-24T04:05:54.382Z,12.40
2023-04-24T04:08:23.643Z,12.40
2023-04-24T04:10:52.962Z,12.50
2023-04-24T04:13:22.241Z,12.50
2023-04-24T04:15:53.676Z,12.60
2023-04-24T04:18:23.319Z,12.60
2023-04-24T04:20:53.068Z,12.70
2023-04-24T04:23:22.587Z,12.80
2023-04-24T04:26:07.046Z,12.90
2023-04-24T04:28:51.341Z,13.40
2023-04-24T04:31:22.241Z,14.50
2023-04-24T04:33:52.210Z,15.60
2023-04-24T04:36:21.722Z,16.70
2023-04-24T04:38:57.882Z,17.80
2023-04-24T04:41:45.506Z,18.90
2023-04-24T04:44:15.352Z,19.80
2023-04-24T04:46:47.350Z,20.60
2023-04-24T04:49:42.937Z,21.10
2023-04-24T04:52:19.833Z,21.80
2023-04-24T04:54:53.869Z,22.70
2023-04-24T04:57:25.033Z,23.50
2023-04-24T04:59:54.442Z,24.10
2023-04-24T05:02:37.948Z,24.50
2023-04-24T05:05:08.537Z,25.20
2023-04-24T05:07:38.144Z,25.60
2023-04-24T05:10:08.752Z,25.70
2023-04-24T05:12:37.950Z,25.90
2023-04-24T05:15:08.083Z,25.90
2023-04-24T05:17:39.007Z,26.30
2023-04-24T05:20:09.978Z,26.00
2023-04-24T05:22:39.508Z,26.20
2023-04-24T05:25:09.794Z,26.60
2023-04-24T05:28:01.794Z,27.10
2023-04-24T05:30:31.638Z,27.40
2023-04-24T05:33:02.654Z,28.40
2023-04-24T05:35:33.626Z,29.00
2023-04-24T05:38:04.318Z,29.40
2023-04-24T05:40:33.745Z,29.70
2023-04-24T05:43:02.992Z,29.60
2023-04-24T05:45:33.006Z,29.90
2023-04-24T05:48:04.294Z,30.50
2023-04-24T05:50:36.193Z,30.80
2023-04-24T05:53:08.326Z,31.20
2023-04-24T05:55:39.791Z,31.20
2023-04-24T05:58:09.051Z,31.50
2023-04-24T06:00:41.096Z,31.40
2023-04-24T06:03:12.720Z,31.50
2023-04-24T06:05:42.869Z,31.60
2023-04-24T06:08:12.754Z,32.00
2023-04-24T06:10:43.248Z,32.30
2023-04-24T06:13:13.574Z,31.70
2023-04-24T06:15:50.263Z,31.20
2023-04-24T06:18:26.186Z,30.60
2023-04-24T06:20:56.490Z,30.20
2023-04-24T06:23:27.053Z,30.10
2023-04-24T06:25:57.129Z,29.20
2023-04-24T06:28:26.377Z,28.20
2023-04-24T06:30:55.870Z,28.50
2023-04-24T06:33:26.833Z,28.90
2023-04-24T06:35:56.391Z,28.30
2023-04-24T06:38:25.678Z,28.30
2023-04-24T06:40:55.007Z,27.90
2023-04-24T06:43:24.288Z,27.80
2023-04-24T06:45:53.658Z,27.60
2023-04-24T06:48:23.214Z,27.90
2023-04-24T06:50:54.608Z,28.40
2023-04-24T06:53:23.869Z,27.20
2023-04-24T06:55:53.213Z,25.90
2023-04-24T06:58:22.577Z,25.50
2023-04-24T07:00:51.919Z,25.80
2023-04-24T07:03:21.332Z,24.80
2023-04-24T07:05:52.547Z,24.70
2023-04-24T07:08:24.227Z,25.00
2023-04-24T07:10:53.726Z,25.00
2023-04-24T07:13:23.107Z,25.50
2023-04-24T07:15:55.245Z,25.60
2023-04-24T07:18:25.150Z,25.40
2023-04-24T07:20:55.371Z,25.50
2023-04-24T07:23:26.198Z,25.70
2023-04-24T07:25:55.766Z,25.70
2023-04-24T07:28:25.890Z,26.00
2023-04-24T07:30:56.032Z,26.50
2023-04-24T07:33:25.474Z,26.90
2023-04-24T07:35:54.979Z,27.10
2023-04-24T07:38:27.137Z,27.40
2023-04-24T07:40:56.922Z,27.80
2023-04-24T07:43:26.767Z,27.90
2023-04-24T07:45:56.699Z,27.90
2023-04-24T07:48:27.623Z,28.30
2023-04-24T07:50:56.930Z,28.30
2023-04-24T07:53:27.890Z,27.70
2023-04-24T07:55:57.731Z,27.30
2023-04-24T07:58:27.109Z,27.20
2023-04-24T08:00:56.564Z,27.80
2023-04-24T08:03:26.126Z,28.40
2023-04-24T08:05:55.643Z,28.60
2023-04-24T08:08:27.337Z,28.40
2023-04-24T08:10:56.838Z,28.70
2023-04-24T08:13:26.061Z,28.90
2023-04-24T08:15:55.602Z,28.90
2023-04-24T08:18:25.334Z,28.30
2023-04-24T08:20:54.733Z,27.90
2023-04-24T08:23:24.706Z,27.50
2023-04-24T08:25:55.519Z,27.40
2023-04-24T08:28:25.071Z,26.50
2023-04-24T08:30:56.138Z,25.90
2023-04-24T08:33:26.144Z,25.90
2023-04-24T08:35:56.101Z,26.10
2023-04-24T08:38:26.059Z,26.20
2023-04-24T08:40:57.273Z,26.20
2023-04-24T08:43:27.364Z,26.20
2023-04-24T08:46:00.583Z,25.90
2023-04-24T08:48:32.034Z,25.60
2023-04-24T08:51:02.541Z,25.80
2023-04-24T08:53:32.383Z,25.90
2023-04-24T08:56:04.461Z,26.40
2023-04-24T08:58:35.910Z,26.90
2023-04-24T09:01:05.545Z,27.10
2023-04-24T09:03:36.224Z,26.90
2023-04-24T09:06:06.777Z,27.00
2023-04-24T09:08:36.125Z,26.10
2023-04-24T09:11:06.973Z,25.90
2023-04-24T09:13:36.953Z,25.80
2023-04-24T09:16:06.769Z,25.60
2023-04-24T09:18:36.577Z,25.70
2023-04-24T09:21:09.218Z,25.90
2023-04-24T09:23:38.745Z,25.90
2023-04-24T09:26:11.365Z,25.40
2023-04-24T09:28:41.959Z,25.70
2023-04-24T09:31:14.276Z,26.20
2023-04-24T09:33:55.625Z,26.80
2023-04-24T09:36:30.998Z,27.60
2023-04-24T09:39:01.647Z,28.10
2023-04-24T09:41:32.385Z,28.40
2023-04-24T09:44:14.578Z,28.90
2023-04-24T09:46:44.862Z,28.70
2023-04-24T09:49:17.582Z,28.20
2023-04-24T09:51:46.916Z,28.00
2023-04-24T09:54:18.431Z,28.30
2023-04-24T09:56:50.544Z,28.40
2023-04-24T09:59:21.792Z,28.10
2023-04-24T10:01:51.972Z,28.20
2023-04-24T10:04:22.560Z,28.00
2023-04-24T10:06:52.929Z,27.90
2023-04-24T10:09:24.146Z,27.50
2023-04-24T10:11:56.553Z,27.40
2023-04-24T10:14:27.050Z,27.70
2023-04-24T10:16:57.825Z,27.40
2023-04-24T10:19:29.069Z,27.50
2023-04-24T10:21:59.819Z,26.50
2023-04-24T10:24:29.260Z,26.10
2023-04-24T10:27:00.524Z,26.00
2023-04-24T10:29:32.825Z,25.90
2023-04-24T10:32:02.121Z,25.00
2023-04-24T10:34:31.966Z,24.80
2023-04-24T10:37:01.520Z,25.00
2023-04-24T10:39:32.068Z,25.50
2023-04-24T10:42:02.894Z,25.90
2023-04-24T10:44:39.379Z,26.30
2023-04-24T10:47:14.968Z,26.40
2023-04-24T10:49:45.009Z,26.70
2023-04-24T10:52:14.475Z,26.80
2023-04-24T10:54:48.372Z,26.90
2023-04-24T10:57:34.882Z,27.00
2023-04-24T11:00:16.994Z,26.90
2023-04-24T11:02:52.018Z,26.90
2023-04-24T11:05:23.442Z,26.90
2023-04-24T11:08:14.416Z,26.20
2023-04-24T11:10:46.935Z,26.00
2023-04-24T11:13:19.666Z,26.20
2023-04-24T11:16:15.164Z,26.00
2023-04-24T11:18:51.985Z,26.10
2023-04-24T11:21:21.631Z,25.90
2023-04-24T11:23:51.917Z,26.20
2023-04-24T11:26:25.595Z,26.40
2023-04-24T11:28:56.383Z,26.30
2023-04-24T11:31:42.496Z,26.10
2023-04-24T11:34:13.348Z,25.10
2023-04-24T11:36:43.063Z,24.80
2023-04-24T11:39:12.471Z,24.70
2023-04-24T11:41:41.787Z,24.80
2023-04-24T11:44:13.313Z,24.50
2023-04-24T11:46:42.809Z,24.60
2023-04-24T11:49:12.365Z,24.80
2023-04-24T11:51:52.099Z,25.10
2023-04-24T11:54:22.824Z,25.20
2023-04-24T11:56:52.876Z,24.90
2023-04-24T11:59:23.688Z,24.50
2023-04-24T12:01:53.236Z,24.90
2023-04-24T12:04:23.111Z,25.10
2023-04-24T12:07:06.297Z,25.20
2023-04-24T12:09:47.671Z,25.40
2023-04-24T12:12:19.025Z,25.60
2023-04-24T12:14:50.904Z,25.80
2023-04-24T12:17:20.165Z,25.40
2023-04-24T12:19:51.883Z,25.30
2023-04-24T12:22:21.206Z,25.30
2023-04-24T12:25:01.811Z,24.90
2023-04-24T12:27:35.463Z,24.40
2023-04-24T12:30:08.249Z,24.60
2023-04-24T12:32:37.515Z,24.80
2023-04-24T12:35:08.401Z,25.30
2023-04-24T12:37:38.062Z,25.10
2023-04-24T12:40:09.289Z,25.30
2023-04-24T12:42:44.279Z,25.60
2023-04-24T12:45:16.771Z,25.40
2023-04-24T12:47:47.476Z,25.60
2023-04-24T12:50:18.406Z,25.40
2023-04-24T12:52:47.942Z,24.90
2023-04-24T12:55:17.170Z,24.30
2023-04-24T12:57:46.384Z,23.80
2023-04-24T13:00:20.103Z,23.40
2023-04-24T13:02:50.049Z,23.30
2023-04-24T13:05:19.663Z,23.20
2023-04-24T13:07:48.891Z,23.20
2023-04-24T13:10:18.298Z,23.20
2023-04-24T13:12:47.798Z,23.00
2023-04-24T13:15:18.649Z,22.90
2023-04-24T13:17:48.116Z,22.90
2023-04-24T13:20:17.471Z,23.00
2023-04-24T13:22:46.986Z,22.90
2023-04-24T13:25:18.309Z,23.00
2023-04-24T13:27:47.544Z,23.00
2023-04-24T13:30:18.425Z,22.90
2023-04-24T13:32:47.836Z,23.00
2023-04-24T13:35:20.931Z,23.10
2023-04-24T13:37:51.420Z,23.10
2023-04-24T13:40:21.132Z,22.90
2023-04-24T13:42:50.459Z,23.00
2023-04-24T13:45:25.175Z,22.80
2023-04-24T13:47:55.981Z,22.80
2023-04-24T13:50:25.759Z,22.60
2023-04-24T13:52:55.425Z,22.40
2023-04-24T13:55:24.913Z,22.40
2023-04-24T13:57:56.419Z,22.50
2023-04-24T14:00:27.532Z,22.60
2023-04-24T14:02:57.596Z,22.80
2023-04-24T14:05:27.287Z,22.70
2023-04-24T14:07:57.263Z,22.80
2023-04-24T14:10:27.150Z,22.90
2023-04-24T14:12:56.809Z,23.20
2023-04-24T14:15:27.563Z,23.40
2023-04-24T14:17:56.889Z,23.40
2023-04-24T14:20:26.969Z,23.40
2023-04-24T14:22:56.472Z,23.50
2023-04-24T14:25:25.831Z,23.50
2023-04-24T14:27:55.350Z,23.30
2023-04-24T14:30:24.741Z,23.10
2023-04-24T14:32:56.337Z,22.80
2023-04-24T14:35:28.676Z,22.90
2023-04-24T14:37:59.497Z,22.90
2023-04-24T14:40:52.809Z,23.00
2023-04-24T14:43:18.611Z,23.20
2023-04-24T14:45:48.099Z,23.30
2023-04-24T14:48:19.039Z,23.40
2023-04-24T14:50:48.317Z,23.40
2023-04-24T14:53:18.536Z,23.50
2023-04-24T14:55:47.881Z,23.50
2023-04-24T14:58:17.196Z,23.50
2023-04-24T15:00:46.446Z,23.40
2023-04-24T15:03:16.108Z,23.40
2023-04-24T15:05:47.274Z,23.20
2023-04-24T15:08:16.917Z,23.20
2023-04-24T15:10:46.856Z,23.10
2023-04-24T15:13:16.316Z,23.00
2023-04-24T15:15:46.583Z,23.00
2023-04-24T15:18:15.972Z,23.00
2023-04-24T15:20:47.357Z,23.00
2023-04-24T15:23:16.799Z,22.90
2023-04-24T15:25:46.463Z,22.90
2023-04-24T15:28:17.458Z,22.90
2023-04-24T15:30:47.290Z,22.90
2023-04-24T15:33:16.792Z,22.90
2023-04-24T15:35:48.084Z,22.90
2023-04-24T15:38:17.481Z,22.80
2023-04-24T15:40:49.786Z,22.30
2023-04-24T15:43:19.147Z,22.10
2023-04-24T15:45:48.520Z,22.00
2023-04-24T15:48:21.636Z,21.90
2023-04-24T15:54:05.136Z,21.90
2023-04-24T15:56:35.906Z,21.80
2023-04-24T15:59:05.842Z,21.70
2023-04-24T16:01:35.530Z,21.80
2023-04-24T16:04:05.434Z,21.80
2023-04-24T16:06:34.828Z,21.90
2023-04-24T16:09:06.356Z,21.90
2023-04-24T16:11:40.312Z,22.00
2023-04-24T16:14:29.216Z,21.90
2023-04-24T16:17:03.834Z,21.90
2023-04-24T16:19:34.390Z,21.90
2023-04-24T16:22:04.161Z,22.00
2023-04-24T16:24:35.809Z,22.00
2023-04-24T16:27:10.764Z,22.20
2023-04-24T16:29:41.300Z,22.30
2023-04-24T16:32:11.194Z,22.20
2023-04-24T16:34:40.812Z,22.20
2023-04-24T16:37:12.750Z,22.00
2023-04-24T16:39:45.496Z,21.90
2023-04-24T16:42:16.567Z,21.70
2023-04-24T16:44:46.017Z,21.60
2023-04-24T16:47:16.411Z,21.60
2023-04-24T16:49:45.828Z,21.60
2023-04-24T16:52:15.058Z,21.80
2023-04-24T16:54:45.773Z,21.80
2023-04-24T16:57:15.347Z,21.70
2023-04-24T16:59:47.670Z,21.70
2023-04-24T17:02:17.796Z,21.80
2023-04-24T17:04:50.906Z,21.70
2023-04-24T17:07:20.607Z,21.50
2023-04-24T17:09:53.554Z,21.60
2023-04-24T17:12:23.014Z,21.50
2023-04-24T17:14:52.900Z,21.30
2023-04-24T17:17:26.385Z,21.30
2023-04-24T17:19:56.949Z,21.20
2023-04-24T17:22:27.081Z,21.10
2023-04-24T17:24:58.480Z,21.00
2023-04-24T17:27:28.610Z,20.80
2023-04-24T17:29:58.556Z,20.80
2023-04-24T17:32:29.072Z,20.70
2023-04-24T17:34:59.200Z,20.70
2023-04-24T17:37:31.433Z,20.50
2023-04-24T17:40:03.121Z,20.50
2023-04-24T17:42:34.104Z,20.50
2023-04-24T17:45:05.077Z,20.40
2023-04-24T17:47:35.452Z,20.30
2023-04-24T17:50:04.955Z,20.30
2023-04-24T17:52:35.748Z,20.20
2023-04-24T17:55:08.507Z,20.20
2023-04-24T17:57:37.864Z,20.10
2023-04-24T18:00:09.252Z,20.10
2023-04-24T18:02:39.489Z,19.90
2023-04-24T18:05:11.770Z,19.80
2023-04-24T18:07:41.665Z,19.70
2023-04-24T18:10:12.969Z,19.60
2023-04-24T18:12:43.806Z,19.50
2023-04-24T18:15:15.182Z,19.40
2023-04-24T18:17:46.951Z,19.40
2023-04-24T18:20:19.251Z,19.30
2023-04-24T18:22:50.605Z,19.20
2023-04-24T18:25:27.241Z,19.20
2023-04-24T18:27:58.343Z,19.20
2023-04-24T18:30:29.150Z,19.20
2023-04-24T18:32:59.807Z,19.20
2023-04-24T18:35:32.838Z,19.10
2023-04-24T18:38:04.251Z,19.00
2023-04-24T18:40:36.401Z,19.00
2023-04-24T18:43:09.105Z,18.90
2023-04-24T18:45:39.029Z,18.80
2023-04-24T18:48:12.609Z,18.80
2023-04-24T18:50:42.760Z,18.80
2023-04-24T18:53:15.917Z,18.60
2023-04-24T18:55:48.031Z,18.60
2023-04-24T18:58:19.884Z,18.50
2023-04-24T19:00:50.124Z,18.40
2023-04-24T19:03:21.085Z,18.50
2023-04-24T19:05:52.169Z,18.40
2023-04-24T19:08:23.069Z,18.40
2023-04-24T19:10:54.758Z,18.40
2023-04-24T19:13:26.104Z,18.30
2023-04-24T19:15:56.847Z,18.30
2023-04-24T19:18:30.174Z,18.20
2023-04-24T19:21:00.980Z,18.10
2023-04-24T19:23:33.152Z,18.20
2023-04-24T19:26:06.319Z,18.10
2023-04-24T19:28:39.072Z,18.10
2023-04-24T19:31:10.661Z,18.00
2023-04-24T19:33:40.685Z,17.80
2023-04-24T19:36:12.767Z,17.80
2023-04-24T19:38:44.071Z,17.80
2023-04-24T19:41:16.665Z,17.70
2023-04-24T19:43:47.805Z,17.80
2023-04-24T19:46:18.170Z,17.70
2023-04-24T19:48:48.825Z,17.70
2023-04-24T19:51:19.732Z,17.60
2023-04-24T19:53:49.722Z,17.50
2023-04-24T19:56:20.546Z,17.50
2023-04-24T19:58:51.661Z,17.30
2023-04-24T20:01:29.292Z,17.20
2023-04-24T20:03:59.724Z,17.20
2023-04-24T20:06:30.120Z,17.20
2023-04-24T20:08:59.911Z,17.20
2023-04-24T20:11:30.799Z,17.20
2023-04-24T20:14:01.747Z,17.10
2023-04-24T20:16:31.192Z,17.10
2023-04-24T20:19:00.824Z,17.10
2023-04-24T20:21:30.752Z,17.00
2023-04-24T20:24:00.551Z,17.10
2023-04-24T20:26:32.589Z,17.00
2023-04-24T20:29:01.892Z,17.00
2023-04-24T20:31:31.429Z,17.00
2023-04-24T20:34:00.682Z,17.00
2023-04-24T20:36:30.063Z,17.00
2023-04-24T20:39:00.147Z,17.00
2023-04-24T20:41:31.788Z,16.90
2023-04-24T20:44:01.898Z,16.80
2023-04-24T20:46:31.232Z,16.80
2023-04-24T20:49:00.987Z,16.80
2023-04-24T20:51:30.245Z,16.70
2023-04-24T20:53:59.709Z,16.60
2023-04-24T20:56:30.732Z,16.60
2023-04-24T20:59:00.286Z,16.60
2023-04-24T21:01:30.478Z,16.70
2023-04-24T21:03:59.780Z,16.60
2023-04-24T21:06:29.164Z,16.60
2023-04-24T21:08:58.397Z,16.60
2023-04-24T21:11:27.794Z,16.50
2023-04-24T21:13:58.329Z,16.40
2023-04-24T21:16:27.824Z,16.40
2023-04-24T21:18:57.478Z,16.40
2023-04-24T21:21:26.785Z,16.20
2023-04-24T21:23:55.957Z,16.20
2023-04-24T21:26:25.243Z,16.10
2023-04-24T21:28:54.754Z,16.10
2023-04-24T21:31:25.440Z,16.10
2023-04-24T21:33:54.907Z,16.10
2023-04-24T21:36:24.291Z,16.00
2023-04-24T21:38:53.718Z,15.90
2023-04-24T21:41:23.429Z,15.90
2023-04-24T21:43:53.047Z,15.90
2023-04-24T21:46:22.433Z,15.80
2023-04-24T21:48:53.116Z,15.80
2023-04-24T21:51:22.220Z,15.80
2023-04-24T21:53:51.589Z,15.70
2023-04-24T21:56:21.264Z,15.60
2023-04-24T21:58:50.489Z,15.60
2023-04-24T22:01:19.997Z,15.70
2023-04-24T22:03:49.837Z,15.60
2023-04-24T22:06:20.890Z,15.50
2023-04-24T22:08:50.099Z,15.50
2023-04-24T22:11:26.722Z,15.30
2023-04-24T22:13:56.769Z,15.30
2023-04-24T22:16:26.888Z,15.20
2023-04-24T22:18:57.650Z,15.20
2023-04-24T22:21:29.264Z,15.10
2023-04-24T22:23:58.606Z,15.10
2023-04-24T22:26:27.940Z,15.10
2023-04-24T22:28:57.038Z,15.10
2023-04-24T22:31:26.294Z,15.00
2023-04-24T22:33:55.541Z,14.90
2023-04-24T22:36:24.731Z,14.90
2023-04-24T22:38:55.311Z,14.80
2023-04-24T22:41:25.128Z,14.80
2023-04-24T22:43:54.426Z,14.70
2023-04-24T22:46:25.202Z,14.70
2023-04-24T22:48:54.502Z,14.70
2023-04-24T22:51:23.891Z,14.70
2023-04-24T22:53:54.518Z,14.70
2023-04-24T22:56:23.750Z,14.60
2023-04-24T22:58:53.452Z,14.60
2023-04-24T23:01:22.833Z,14.50
2023-04-24T23:03:52.899Z,14.50
2023-04-24T23:06:22.960Z,14.50
2023-04-24T23:08:52.355Z,14.50
2023-04-24T23:11:23.601Z,14.50
2023-04-24T23:13:52.931Z,14.50
2023-04-24T23:16:22.836Z,14.50
2023-04-24T23:18:52.111Z,14.40
2023-04-24T23:21:21.369Z,14.50
2023-04-24T23:23:53.016Z,14.30
2023-04-24T23:26:23.661Z,14.40
2023-04-24T23:28:53.086Z,14.30
2023-04-24T23:31:22.524Z,14.30
2023-04-24T23:33:51.794Z,14.30
2023-04-24T23:36:21.132Z,14.30
2023-04-24T23:38:50.989Z,14.20
2023-04-24T23:41:20.827Z,14.20
2023-04-24T23:43:51.517Z,14.20
2023-04-24T23:46:21.083Z,14.10
2023-04-24T23:48:50.214Z,14.10
2023-04-24T23:51:19.876Z,14.10
2023-04-24T23:53:49.621Z,14.20
2023-04-24T23:56:18.927Z,14.10
2023-04-24T23:58:48.548Z,14.10
